sensor_id;sensor_type;location;lat;lon;timestamp;P1;durP1;ratioP1;P2;durP2;ratioP2
35326;SDS011;21436;52.348;20.928;2023-04-25T00:01:46;27.48;;;18.42;;
35326;SDS011;21436;52.348;20.928;2023-04-25T00:04:14;27.33;;;18.85;;
35326;SDS011;21436;52.348;20.928;2023-04-25T00:06:42;28.85;;;19.80;;
35326;SDS011;21436;52.348;20.928;2023-04-25T00:09:09;31.98;;;19.65;;
35326;SDS011;21436;52.348;20.928;2023-04-25T00:11:38;34.00;;;19.52;;
35326;SDS011;21436;52.348;20.928;2023-04-25T00:14:05;29.50;;;20.08;;
35326;SDS011;21436;52.348;20.928;2023-04-25T00:16:33;27.45;;;19.33;;
35326;SDS011;21436;52.348;20.928;2023-04-25T00:19:02;29.20;;;19.77;;
35326;SDS011;21436;52.348;20.928;2023-04-25T00:21:30;33.35;;;19.60;;
35326;SDS011;21436;52.348;20.928;2023-04-25T00:23:58;24.73;;;19.13;;
35326;SDS011;21436;52.348;20.928;2023-04-25T00:26:26;27.65;;;18.70;;
35326;SDS011;21436;52.348;20.928;2023-04-25T00:28:54;29.75;;;18.42;;
35326;SDS011;21436;52.348;20.928;2023-04-25T00:31:21;32.10;;;19.33;;
35326;SDS011;21436;52.348;20.928;2023-04-25T00:33:48;28.08;;;20.10;;
35326;SDS011;21436;52.348;20.928;2023-04-25T00:36:16;30.58;;;19.17;;
35326;SDS011;21436;52.348;20.928;2023-04-25T00:38:45;30.80;;;19.17;;
35326;SDS011;21436;52.348;20.928;2023-04-25T00:41:12;28.35;;;18.92;;
35326;SDS011;21436;52.348;20.928;2023-04-25T00:43:39;26.90;;;19.40;;
35326;SDS011;21436;52.348;20.928;2023-04-25T00:46:07;31.98;;;20.13;;
35326;SDS011;21436;52.348;20.928;2023-04-25T00:48:34;29.25;;;20.15;;
35326;SDS011;21436;52.348;20.928;2023-04-25T00:51:02;30.50;;;20.73;;
35326;SDS011;21436;52.348;20.928;2023-04-25T00:53:30;35.53;;;22.35;;
35326;SDS011;21436;52.348;20.928;2023-04-25T00:55:59;33.85;;;22.15;;
35326;SDS011;21436;52.348;20.928;2023-04-25T00:58:26;33.88;;;21.67;;
35326;SDS011;21436;52.348;20.928;2023-04-25T01:00:54;34.45;;;21.95;;
35326;SDS011;21436;52.348;20.928;2023-04-25T01:03:22;32.08;;;22.30;;
35326;SDS011;21436;52.348;20.928;2023-04-25T01:05:51;33.80;;;22.35;;
35326;SDS011;21436;52.348;20.928;2023-04-25T01:08:19;33.67;;;23.00;;
35326;SDS011;21436;52.348;20.928;2023-04-25T01:10:49;35.30;;;23.02;;
35326;SDS011;21436;52.348;20.928;2023-04-25T01:13:16;39.58;;;23.55;;
35326;SDS011;21436;52.348;20.928;2023-04-25T01:15:44;36.30;;;24.42;;
35326;SDS011;21436;52.348;20.928;2023-04-25T01:18:11;40.00;;;23.38;;
35326;SDS011;21436;52.348;20.928;2023-04-25T01:20:39;38.47;;;24.52;;
35326;SDS011;21436;52.348;20.928;2023-04-25T01:23:09;36.03;;;23.35;;
35326;SDS011;21436;52.348;20.928;2023-04-25T01:25:37;38.45;;;23.77;;
35326;SDS011;21436;52.348;20.928;2023-04-25T01:28:04;39.88;;;24.80;;
35326;SDS011;21436;52.348;20.928;2023-04-25T01:30:32;41.28;;;24.08;;
35326;SDS011;21436;52.348;20.928;2023-04-25T01:32:59;38.90;;;24.60;;
35326;SDS011;21436;52.348;20.928;2023-04-25T01:35:28;38.63;;;24.33;;
35326;SDS011;21436;52.348;20.928;2023-04-25T01:37:55;44.25;;;24.90;;
35326;SDS011;21436;52.348;20.928;2023-04-25T01:40:23;36.38;;;24.23;;
35326;SDS011;21436;52.348;20.928;2023-04-25T01:42:51;43.13;;;26.45;;
35326;SDS011;21436;52.348;20.928;2023-04-25T01:45:19;42.60;;;26.65;;
35326;SDS011;21436;52.348;20.928;2023-04-25T01:47:47;36.60;;;24.83;;
35326;SDS011;21436;52.348;20.928;2023-04-25T01:50:17;40.92;;;25.50;;
35326;SDS011;21436;52.348;20.928;2023-04-25T01:52:45;40.15;;;25.15;;
35326;SDS011;21436;52.348;20.928;2023-04-25T01:55:13;43.85;;;26.23;;
35326;SDS011;21436;52.348;20.928;2023-04-25T01:57:50;38.65;;;25.48;;
35326;SDS011;21436;52.348;20.928;2023-04-25T02:00:23;36.50;;;25.38;;
35326;SDS011;21436;52.348;20.928;2023-04-25T02:02:50;41.08;;;24.85;;
35326;SDS011;21436;52.348;20.928;2023-04-25T02:05:25;35.92;;;23.90;;
35326;SDS011;21436;52.348;20.928;2023-04-25T02:07:53;35.50;;;24.20;;
35326;SDS011;21436;52.348;20.928;2023-04-25T02:10:20;35.55;;;24.27;;
35326;SDS011;21436;52.348;20.928;2023-04-25T02:13:03;36.92;;;23.88;;
35326;SDS011;21436;52.348;20.928;2023-04-25T02:15:50;36.72;;;24.83;;
35326;SDS011;21436;52.348;20.928;2023-04-25T02:18:19;38.08;;;23.85;;
35326;SDS011;21436;52.348;20.928;2023-04-25T02:20:48;34.85;;;23.38;;
35326;SDS011;21436;52.348;20.928;2023-04-25T02:23:15;37.35;;;23.25;;
35326;SDS011;21436;52.348;20.928;2023-04-25T02:25:43;39.60;;;24.20;;
35326;SDS011;21436;52.348;20.928;2023-04-25T02:28:10;39.30;;;23.70;;
35326;SDS011;21436;52.348;20.928;2023-04-25T02:30:38;34.67;;;22.10;;
35326;SDS011;21436;52.348;20.928;2023-04-25T02:33:05;37.97;;;23.58;;
35326;SDS011;21436;52.348;20.928;2023-04-25T02:35:32;43.70;;;24.50;;
35326;SDS011;21436;52.348;20.928;2023-04-25T02:38:00;38.08;;;23.83;;
35326;SDS011;21436;52.348;20.928;2023-04-25T02:40:27;37.72;;;24.95;;
35326;SDS011;21436;52.348;20.928;2023-04-25T02:42:55;38.97;;;23.58;;
35326;SDS011;21436;52.348;20.928;2023-04-25T02:45:22;34.47;;;23.75;;
35326;SDS011;21436;52.348;20.928;2023-04-25T02:47:49;39.78;;;25.10;;
35326;SDS011;21436;52.348;20.928;2023-04-25T02:50:18;39.03;;;23.40;;
35326;SDS011;21436;52.348;20.928;2023-04-25T02:52:46;36.55;;;22.92;;
35326;SDS011;21436;52.348;20.928;2023-04-25T02:55:17;41.17;;;23.35;;
35326;SDS011;21436;52.348;20.928;2023-04-25T02:57:45;38.75;;;24.40;;
35326;SDS011;21436;52.348;20.928;2023-04-25T03:00:20;36.30;;;23.45;;
35326;SDS011;21436;52.348;20.928;2023-04-25T03:02:47;37.60;;;22.27;;
35326;SDS011;21436;52.348;20.928;2023-04-25T03:05:15;37.58;;;22.20;;
35326;SDS011;21436;52.348;20.928;2023-04-25T03:07:43;35.85;;;22.20;;
35326;SDS011;21436;52.348;20.928;2023-04-25T03:10:11;37.10;;;22.23;;
35326;SDS011;21436;52.348;20.928;2023-04-25T03:12:39;35.53;;;22.13;;
35326;SDS011;21436;52.348;20.928;2023-04-25T03:15:07;34.60;;;22.17;;
35326;SDS011;21436;52.348;20.928;2023-04-25T03:17:35;49.65;;;21.95;;
35326;SDS011;21436;52.348;20.928;2023-04-25T03:20:03;36.22;;;20.92;;
35326;SDS011;21436;52.348;20.928;2023-04-25T03:22:31;35.00;;;21.20;;
35326;SDS011;21436;52.348;20.928;2023-04-25T03:24:59;36.40;;;20.95;;
35326;SDS011;21436;52.348;20.928;2023-04-25T03:27:26;36.40;;;21.20;;
35326;SDS011;21436;52.348;20.928;2023-04-25T03:29:53;32.45;;;19.88;;
35326;SDS011;21436;52.348;20.928;2023-04-25T03:32:21;35.92;;;20.35;;
35326;SDS011;21436;52.348;20.928;2023-04-25T03:34:48;32.72;;;19.20;;
35326;SDS011;21436;52.348;20.928;2023-04-25T03:37:15;32.05;;;20.00;;
35326;SDS011;21436;52.348;20.928;2023-04-25T03:39:43;34.10;;;20.27;;
35326;SDS011;21436;52.348;20.928;2023-04-25T03:42:11;36.92;;;20.25;;
35326;SDS011;21436;52.348;20.928;2023-04-25T03:44:38;30.98;;;18.65;;
35326;SDS011;21436;52.348;20.928;2023-04-25T03:47:06;34.50;;;18.67;;
35326;SDS011;21436;52.348;20.928;2023-04-25T03:49:34;30.60;;;18.45;;
35326;SDS011;21436;52.348;20.928;2023-04-25T03:52:05;32.58;;;19.20;;
35326;SDS011;21436;52.348;20.928;2023-04-25T03:54:36;29.60;;;17.20;;
35326;SDS011;21436;52.348;20.928;2023-04-25T03:57:10;27.70;;;17.02;;
35326;SDS011;21436;52.348;20.928;2023-04-25T03:59:39;30.10;;;17.55;;
35326;SDS011;21436;52.348;20.928;2023-04-25T04:02:09;30.20;;;17.98;;
35326;SDS011;21436;52.348;20.928;2023-04-25T04:04:37;29.77;;;18.00;;
35326;SDS011;21436;52.348;20.928;2023-04-25T04:07:05;28.27;;;17.92;;
35326;SDS011;21436;52.348;20.928;2023-04-25T04:09:35;27.98;;;17.25;;
35326;SDS011;21436;52.348;20.928;2023-04-25T04:12:07;32.97;;;18.42;;
35326;SDS011;21436;52.348;20.928;2023-04-25T04:14:38;29.77;;;17.60;;
35326;SDS011;21436;52.348;20.928;2023-04-25T04:17:05;25.77;;;16.67;;
35326;SDS011;21436;52.348;20.928;2023-04-25T04:19:34;30.02;;;17.55;;
35326;SDS011;21436;52.348;20.928;2023-04-25T04:22:11;28.40;;;16.73;;
35326;SDS011;21436;52.348;20.928;2023-04-25T04:24:40;26.02;;;16.42;;
35326;SDS011;21436;52.348;20.928;2023-04-25T04:27:09;27.58;;;15.93;;
35326;SDS011;21436;52.348;20.928;2023-04-25T04:29:55;25.60;;;15.85;;
35326;SDS011;21436;52.348;20.928;2023-04-25T04:32:46;25.65;;;15.77;;
35326;SDS011;21436;52.348;20.928;2023-04-25T04:35:16;25.42;;;16.35;;
35326;SDS011;21436;52.348;20.928;2023-04-25T04:37:44;26.52;;;15.27;;
35326;SDS011;21436;52.348;20.928;2023-04-25T04:40:14;25.75;;;15.52;;
35326;SDS011;21436;52.348;20.928;2023-04-25T04:42:51;26.85;;;14.98;;
35326;SDS011;21436;52.348;20.928;2023-04-25T04:45:30;24.13;;;15.77;;
35326;SDS011;21436;52.348;20.928;2023-04-25T04:48:09;24.15;;;15.98;;
35326;SDS011;21436;52.348;20.928;2023-04-25T04:50:55;21.13;;;14.27;;
35326;SDS011;21436;52.348;20.928;2023-04-25T04:53:37;24.52;;;15.77;;
35326;SDS011;21436;52.348;20.928;2023-04-25T04:56:23;27.63;;;16.42;;
35326;SDS011;21436;52.348;20.928;2023-04-25T04:58:57;22.42;;;15.43;;
35326;SDS011;21436;52.348;20.928;2023-04-25T05:01:34;21.85;;;15.45;;
35326;SDS011;21436;52.348;20.928;2023-04-25T05:04:16;24.92;;;16.45;;
35326;SDS011;21436;52.348;20.928;2023-04-25T05:07:02;23.90;;;15.70;;
35326;SDS011;21436;52.348;20.928;2023-04-25T05:09:48;22.98;;;15.65;;
35326;SDS011;21436;52.348;20.928;2023-04-25T05:12:35;24.20;;;16.58;;
35326;SDS011;21436;52.348;20.928;2023-04-25T05:15:35;26.58;;;16.20;;
35326;SDS011;21436;52.348;20.928;2023-04-25T05:18:21;24.20;;;16.63;;
35326;SDS011;21436;52.348;20.928;2023-04-25T05:21:08;24.50;;;16.38;;
35326;SDS011;21436;52.348;20.928;2023-04-25T05:23:45;26.63;;;16.63;;
35326;SDS011;21436;52.348;20.928;2023-04-25T05:26:32;23.85;;;16.15;;
35326;SDS011;21436;52.348;20.928;2023-04-25T05:29:20;21.67;;;15.50;;
35326;SDS011;21436;52.348;20.928;2023-04-25T05:34:41;25.05;;;15.27;;
35326;SDS011;21436;52.348;20.928;2023-04-25T05:37:18;23.85;;;15.70;;
35326;SDS011;21436;52.348;20.928;2023-04-25T05:39:55;24.15;;;16.52;;
35326;SDS011;21436;52.348;20.928;2023-04-25T05:42:45;24.80;;;16.48;;
35326;SDS011;21436;52.348;20.928;2023-04-25T05:45:45;25.75;;;17.73;;
35326;SDS011;21436;52.348;20.928;2023-04-25T05:48:47;26.20;;;17.08;;
35326;SDS011;21436;52.348;20.928;2023-04-25T05:51:29;25.25;;;17.67;;
35326;SDS011;21436;52.348;20.928;2023-04-25T05:54:24;26.90;;;18.17;;
35326;SDS011;21436;52.348;20.928;2023-04-25T05:56:58;25.27;;;17.70;;
35326;SDS011;21436;52.348;20.928;2023-04-25T05:59:25;23.75;;;17.55;;
35326;SDS011;21436;52.348;20.928;2023-04-25T06:01:53;27.17;;;17.08;;
35326;SDS011;21436;52.348;20.928;2023-04-25T06:04:22;24.40;;;16.63;;
35326;SDS011;21436;52.348;20.928;2023-04-25T06:06:50;26.60;;;17.80;;
35326;SDS011;21436;52.348;20.928;2023-04-25T06:09:17;24.90;;;18.02;;
35326;SDS011;21436;52.348;20.928;2023-04-25T06:11:45;25.45;;;17.00;;
35326;SDS011;21436;52.348;20.928;2023-04-25T06:14:13;25.40;;;16.98;;
35326;SDS011;21436;52.348;20.928;2023-04-25T06:16:46;26.58;;;18.20;;
35326;SDS011;21436;52.348;20.928;2023-04-25T06:19:14;28.13;;;18.60;;
35326;SDS011;21436;52.348;20.928;2023-04-25T06:21:44;25.10;;;17.60;;
35326;SDS011;21436;52.348;20.928;2023-04-25T06:24:11;26.70;;;18.80;;
35326;SDS011;21436;52.348;20.928;2023-04-25T06:26:39;28.73;;;18.63;;
35326;SDS011;21436;52.348;20.928;2023-04-25T06:29:06;24.92;;;18.27;;
35326;SDS011;21436;52.348;20.928;2023-04-25T06:31:34;25.10;;;17.23;;
35326;SDS011;21436;52.348;20.928;2023-04-25T06:34:02;23.40;;;15.98;;
35326;SDS011;21436;52.348;20.928;2023-04-25T06:36:33;25.17;;;16.80;;
35326;SDS011;21436;52.348;20.928;2023-04-25T06:39:06;25.70;;;16.38;;
35326;SDS011;21436;52.348;20.928;2023-04-25T06:41:33;24.65;;;17.48;;
35326;SDS011;21436;52.348;20.928;2023-04-25T06:44:05;28.23;;;17.88;;
35326;SDS011;21436;52.348;20.928;2023-04-25T06:46:39;26.50;;;16.55;;
35326;SDS011;21436;52.348;20.928;2023-04-25T06:49:06;24.65;;;17.65;;
35326;SDS011;21436;52.348;20.928;2023-04-25T06:51:34;25.67;;;17.33;;
35326;SDS011;21436;52.348;20.928;2023-04-25T06:54:01;23.52;;;16.10;;
35326;SDS011;21436;52.348;20.928;2023-04-25T06:56:39;25.38;;;16.58;;
35326;SDS011;21436;52.348;20.928;2023-04-25T06:59:11;30.65;;;18.83;;
35326;SDS011;21436;52.348;20.928;2023-04-25T07:01:40;28.77;;;17.85;;
35326;SDS011;21436;52.348;20.928;2023-04-25T07:04:15;26.65;;;18.27;;
35326;SDS011;21436;52.348;20.928;2023-04-25T07:09:20;26.75;;;16.95;;
35326;SDS011;21436;52.348;20.928;2023-04-25T07:11:49;24.17;;;16.83;;
35326;SDS011;21436;52.348;20.928;2023-04-25T07:14:17;25.30;;;17.02;;
35326;SDS011;21436;52.348;20.928;2023-04-25T07:16:45;26.23;;;16.63;;
35326;SDS011;21436;52.348;20.928;2023-04-25T07:19:12;21.75;;;16.10;;
35326;SDS011;21436;52.348;20.928;2023-04-25T07:21:41;23.42;;;16.25;;
35326;SDS011;21436;52.348;20.928;2023-04-25T07:24:08;23.60;;;15.55;;
35326;SDS011;21436;52.348;20.928;2023-04-25T07:26:40;24.10;;;16.83;;
35326;SDS011;21436;52.348;20.928;2023-04-25T07:29:21;20.40;;;14.93;;
35326;SDS011;21436;52.348;20.928;2023-04-25T07:31:49;20.40;;;13.80;;
35326;SDS011;21436;52.348;20.928;2023-04-25T07:34:16;19.42;;;13.88;;
35326;SDS011;21436;52.348;20.928;2023-04-25T07:36:44;18.63;;;12.90;;
35326;SDS011;21436;52.348;20.928;2023-04-25T07:39:12;16.60;;;11.32;;
35326;SDS011;21436;52.348;20.928;2023-04-25T07:41:40;16.15;;;11.43;;
35326;SDS011;21436;52.348;20.928;2023-04-25T07:44:12;16.90;;;12.15;;
35326;SDS011;21436;52.348;20.928;2023-04-25T07:46:40;15.77;;;10.95;;
35326;SDS011;21436;52.348;20.928;2023-04-25T07:49:08;14.10;;;11.13;;
35326;SDS011;21436;52.348;20.928;2023-04-25T07:51:39;14.23;;;11.10;;
35326;SDS011;21436;52.348;20.928;2023-04-25T07:54:12;12.10;;;10.10;;
35326;SDS011;21436;52.348;20.928;2023-04-25T07:56:46;17.30;;;9.68;;
35326;SDS011;21436;52.348;20.928;2023-04-25T07:59:20;17.23;;;10.70;;
35326;SDS011;21436;52.348;20.928;2023-04-25T08:01:48;14.18;;;10.82;;
35326;SDS011;21436;52.348;20.928;2023-04-25T08:04:18;12.45;;;8.82;;
35326;SDS011;21436;52.348;20.928;2023-04-25T08:06:53;13.20;;;10.60;;
35326;SDS011;21436;52.348;20.928;2023-04-25T08:09:26;16.23;;;11.95;;
35326;SDS011;21436;52.348;20.928;2023-04-25T08:11:55;16.17;;;12.32;;
35326;SDS011;21436;52.348;20.928;2023-04-25T08:14:27;19.00;;;12.80;;
35326;SDS011;21436;52.348;20.928;2023-04-25T08:16:58;17.08;;;11.77;;
35326;SDS011;21436;52.348;20.928;2023-04-25T08:19:27;16.17;;;11.20;;
35326;SDS011;21436;52.348;20.928;2023-04-25T08:21:55;15.07;;;12.23;;
35326;SDS011;21436;52.348;20.928;2023-04-25T08:24:30;16.13;;;12.52;;
35326;SDS011;21436;52.348;20.928;2023-04-25T08:26:57;14.98;;;11.93;;
35326;SDS011;21436;52.348;20.928;2023-04-25T08:29:27;16.25;;;12.93;;
35326;SDS011;21436;52.348;20.928;2023-04-25T08:31:55;17.70;;;12.55;;
35326;SDS011;21436;52.348;20.928;2023-04-25T08:34:23;15.95;;;12.43;;
35326;SDS011;21436;52.348;20.928;2023-04-25T08:36:52;18.23;;;11.75;;
35326;SDS011;21436;52.348;20.928;2023-04-25T08:39:26;15.27;;;12.23;;
35326;SDS011;21436;52.348;20.928;2023-04-25T08:42:12;17.25;;;12.20;;
35326;SDS011;21436;52.348;20.928;2023-04-25T08:44:41;15.65;;;12.48;;
35326;SDS011;21436;52.348;20.928;2023-04-25T08:47:08;16.25;;;12.85;;
35326;SDS011;21436;52.348;20.928;2023-04-25T08:49:45;15.68;;;11.90;;
35326;SDS011;21436;52.348;20.928;2023-04-25T08:52:13;16.30;;;12.52;;
35326;SDS011;21436;52.348;20.928;2023-04-25T08:54:42;13.60;;;11.32;;
35326;SDS011;21436;52.348;20.928;2023-04-25T08:57:11;15.43;;;13.05;;
35326;SDS011;21436;52.348;20.928;2023-04-25T08:59:40;16.65;;;11.68;;
35326;SDS011;21436;52.348;20.928;2023-04-25T09:02:12;15.75;;;11.95;;
35326;SDS011;21436;52.348;20.928;2023-04-25T09:04:48;16.23;;;12.40;;
35326;SDS011;21436;52.348;20.928;2023-04-25T09:07:16;16.08;;;13.07;;
35326;SDS011;21436;52.348;20.928;2023-04-25T09:09:48;17.73;;;13.38;;
35326;SDS011;21436;52.348;20.928;2023-04-25T09:12:18;16.17;;;13.18;;
35326;SDS011;21436;52.348;20.928;2023-04-25T09:15:07;17.50;;;12.60;;
35326;SDS011;21436;52.348;20.928;2023-04-25T09:17:57;17.98;;;12.88;;
35326;SDS011;21436;52.348;20.928;2023-04-25T09:20:33;16.30;;;12.48;;
35326;SDS011;21436;52.348;20.928;2023-04-25T09:23:26;16.35;;;11.63;;
35326;SDS011;21436;52.348;20.928;2023-04-25T09:25:54;15.55;;;11.07;;
35326;SDS011;21436;52.348;20.928;2023-04-25T09:28:25;15.30;;;11.50;;
35326;SDS011;21436;52.348;20.928;2023-04-25T09:30:57;13.75;;;10.63;;
35326;SDS011;21436;52.348;20.928;2023-04-25T09:33:43;19.35;;;13.10;;
35326;SDS011;21436;52.348;20.928;2023-04-25T09:36:11;14.65;;;11.98;;
35326;SDS011;21436;52.348;20.928;2023-04-25T09:38:59;12.63;;;10.25;;
35326;SDS011;21436;52.348;20.928;2023-04-25T09:41:29;18.08;;;9.93;;
35326;SDS011;21436;52.348;20.928;2023-04-25T09:44:00;14.55;;;11.00;;
35326;SDS011;21436;52.348;20.928;2023-04-25T09:46:33;17.95;;;13.38;;
35326;SDS011;21436;52.348;20.928;2023-04-25T09:49:07;18.05;;;13.55;;
35326;SDS011;21436;52.348;20.928;2023-04-25T09:51:56;16.45;;;13.02;;
35326;SDS011;21436;52.348;20.928;2023-04-25T09:54:28;18.42;;;14.63;;
35326;SDS011;21436;52.348;20.928;2023-04-25T09:57:16;22.40;;;13.90;;
35326;SDS011;21436;52.348;20.928;2023-04-25T09:59:49;19.50;;;14.80;;
35326;SDS011;21436;52.348;20.928;2023-04-25T10:02:19;19.90;;;14.25;;
35326;SDS011;21436;52.348;20.928;2023-04-25T10:04:51;19.00;;;14.55;;
35326;SDS011;21436;52.348;20.928;2023-04-25T10:07:43;21.17;;;15.00;;
35326;SDS011;21436;52.348;20.928;2023-04-25T10:10:15;20.70;;;15.82;;
35326;SDS011;21436;52.348;20.928;2023-04-25T10:12:43;21.85;;;15.95;;
35326;SDS011;21436;52.348;20.928;2023-04-25T10:15:11;22.85;;;15.55;;
35326;SDS011;21436;52.348;20.928;2023-04-25T10:17:39;22.15;;;16.52;;
35326;SDS011;21436;52.348;20.928;2023-04-25T10:20:07;20.90;;;16.73;;
35326;SDS011;21436;52.348;20.928;2023-04-25T10:22:42;24.00;;;17.50;;
35326;SDS011;21436;52.348;20.928;2023-04-25T10:25:09;24.95;;;17.02;;
35326;SDS011;21436;52.348;20.928;2023-04-25T10:27:38;23.60;;;17.23;;
35326;SDS011;21436;52.348;20.928;2023-04-25T10:30:10;26.02;;;18.65;;
35326;SDS011;21436;52.348;20.928;2023-04-25T10:32:42;23.00;;;17.38;;
35326;SDS011;21436;52.348;20.928;2023-04-25T10:35:17;21.98;;;16.85;;
35326;SDS011;21436;52.348;20.928;2023-04-25T10:40:32;19.83;;;15.38;;
35326;SDS011;21436;52.348;20.928;2023-04-25T10:43:43;18.92;;;14.13;;
35326;SDS011;21436;52.348;20.928;2023-04-25T10:46:00;17.65;;;12.20;;
35326;SDS011;21436;52.348;20.928;2023-04-25T10:48:28;13.75;;;11.25;;
35326;SDS011;21436;52.348;20.928;2023-04-25T10:53:57;11.52;;;8.57;;
35326;SDS011;21436;52.348;20.928;2023-04-25T10:56:32;9.93;;;7.45;;
35326;SDS011;21436;52.348;20.928;2023-04-25T10:59:11;10.50;;;7.45;;
35326;SDS011;21436;52.348;20.928;2023-04-25T11:04:21;10.75;;;6.38;;
35326;SDS011;21436;52.348;20.928;2023-04-25T11:09:40;6.82;;;5.60;;
35326;SDS011;21436;52.348;20.928;2023-04-25T11:12:08;7.15;;;5.97;;
35326;SDS011;21436;52.348;20.928;2023-04-25T11:14:37;7.32;;;5.75;;
35326;SDS011;21436;52.348;20.928;2023-04-25T11:17:04;10.10;;;5.72;;
35326;SDS011;21436;52.348;20.928;2023-04-25T11:19:32;9.50;;;5.10;;
35326;SDS011;21436;52.348;20.928;2023-04-25T11:22:00;6.22;;;5.00;;
35326;SDS011;21436;52.348;20.928;2023-04-25T11:24:29;7.03;;;5.82;;
35326;SDS011;21436;52.348;20.928;2023-04-25T11:26:58;8.15;;;5.72;;
35326;SDS011;21436;52.348;20.928;2023-04-25T11:29:26;7.32;;;5.85;;
35326;SDS011;21436;52.348;20.928;2023-04-25T11:31:54;6.82;;;5.35;;
35326;SDS011;21436;52.348;20.928;2023-04-25T11:34:25;7.57;;;5.30;;
35326;SDS011;21436;52.348;20.928;2023-04-25T11:36:53;6.38;;;5.13;;
35326;SDS011;21436;52.348;20.928;2023-04-25T11:39:20;7.18;;;5.95;;
35326;SDS011;21436;52.348;20.928;2023-04-25T11:41:48;6.65;;;5.90;;
35326;SDS011;21436;52.348;20.928;2023-04-25T11:44:17;8.45;;;6.57;;
35326;SDS011;21436;52.348;20.928;2023-04-25T11:46:45;8.98;;;7.40;;
35326;SDS011;21436;52.348;20.928;2023-04-25T11:49:14;12.07;;;9.45;;
35326;SDS011;21436;52.348;20.928;2023-04-25T11:51:46;10.07;;;8.75;;
35326;SDS011;21436;52.348;20.928;2023-04-25T11:54:15;13.48;;;9.65;;
35326;SDS011;21436;52.348;20.928;2023-04-25T11:56:46;20.33;;;10.77;;
35326;SDS011;21436;52.348;20.928;2023-04-25T11:59:13;12.15;;;9.55;;
35326;SDS011;21436;52.348;20.928;2023-04-25T12:01:41;10.98;;;9.68;;
35326;SDS011;21436;52.348;20.928;2023-04-25T12:04:16;12.82;;;9.77;;
35326;SDS011;21436;52.348;20.928;2023-04-25T12:06:48;12.55;;;9.68;;
35326;SDS011;21436;52.348;20.928;2023-04-25T12:09:18;14.60;;;9.98;;
35326;SDS011;21436;52.348;20.928;2023-04-25T12:11:55;10.23;;;8.95;;
35326;SDS011;21436;52.348;20.928;2023-04-25T12:14:26;10.88;;;9.40;;
35326;SDS011;21436;52.348;20.928;2023-04-25T12:16:55;11.57;;;8.43;;
35326;SDS011;21436;52.348;20.928;2023-04-25T12:19:25;11.40;;;7.45;;
35326;SDS011;21436;52.348;20.928;2023-04-25T12:21:53;10.23;;;7.20;;
35326;SDS011;21436;52.348;20.928;2023-04-25T12:24:25;8.93;;;6.85;;
35326;SDS011;21436;52.348;20.928;2023-04-25T12:26:59;9.38;;;6.75;;
35326;SDS011;21436;52.348;20.928;2023-04-25T12:29:31;9.88;;;7.05;;
35326;SDS011;21436;52.348;20.928;2023-04-25T12:32:14;10.18;;;6.28;;
35326;SDS011;21436;52.348;20.928;2023-04-25T12:34:42;7.35;;;5.50;;
35326;SDS011;21436;52.348;20.928;2023-04-25T12:37:10;8.80;;;5.55;;
35326;SDS011;21436;52.348;20.928;2023-04-25T12:39:39;6.97;;;5.50;;
35326;SDS011;21436;52.348;20.928;2023-04-25T12:42:06;7.90;;;5.22;;
35326;SDS011;21436;52.348;20.928;2023-04-25T12:47:07;6.45;;;5.28;;
35326;SDS011;21436;52.348;20.928;2023-04-25T12:49:35;7.15;;;5.03;;
35326;SDS011;21436;52.348;20.928;2023-04-25T12:52:02;5.57;;;4.80;;
35326;SDS011;21436;52.348;20.928;2023-04-25T12:54:30;8.10;;;4.90;;
35326;SDS011;21436;52.348;20.928;2023-04-25T12:56:58;5.93;;;5.00;;
35326;SDS011;21436;52.348;20.928;2023-04-25T12:59:26;7.35;;;5.32;;
35326;SDS011;21436;52.348;20.928;2023-04-25T13:01:53;8.77;;;5.45;;
35326;SDS011;21436;52.348;20.928;2023-04-25T13:04:21;6.07;;;5.30;;
35326;SDS011;21436;52.348;20.928;2023-04-25T13:06:48;5.40;;;4.60;;
35326;SDS011;21436;52.348;20.928;2023-04-25T13:09:16;6.88;;;4.18;;
35326;SDS011;21436;52.348;20.928;2023-04-25T13:11:44;8.50;;;5.05;;
35326;SDS011;21436;52.348;20.928;2023-04-25T13:14:13;7.85;;;3.97;;
35326;SDS011;21436;52.348;20.928;2023-04-25T13:16:40;5.20;;;4.32;;
35326;SDS011;21436;52.348;20.928;2023-04-25T13:19:08;6.40;;;4.43;;
35326;SDS011;21436;52.348;20.928;2023-04-25T13:21:38;6.00;;;4.72;;
35326;SDS011;21436;52.348;20.928;2023-04-25T13:24:06;7.35;;;4.40;;
35326;SDS011;21436;52.348;20.928;2023-04-25T13:26:33;6.65;;;4.70;;
35326;SDS011;21436;52.348;20.928;2023-04-25T13:29:01;5.25;;;4.43;;
35326;SDS011;21436;52.348;20.928;2023-04-25T13:31:30;6.20;;;4.40;;
35326;SDS011;21436;52.348;20.928;2023-04-25T13:33:58;5.30;;;4.40;;
35326;SDS011;21436;52.348;20.928;2023-04-25T13:36:26;4.97;;;4.47;;
35326;SDS011;21436;52.348;20.928;2023-04-25T13:38:54;8.20;;;5.43;;
35326;SDS011;21436;52.348;20.928;2023-04-25T13:41:22;6.32;;;5.05;;
35326;SDS011;21436;52.348;20.928;2023-04-25T13:43:50;6.03;;;5.15;;
35326;SDS011;21436;52.348;20.928;2023-04-25T13:46:17;6.35;;;4.93;;
35326;SDS011;21436;52.348;20.928;2023-04-25T13:48:48;7.53;;;4.88;;
35326;SDS011;21436;52.348;20.928;2023-04-25T13:53:48;6.30;;;5.07;;
35326;SDS011;21436;52.348;20.928;2023-04-25T13:56:16;7.97;;;5.28;;
35326;SDS011;21436;52.348;20.928;2023-04-25T13:58:43;7.60;;;5.93;;
35326;SDS011;21436;52.348;20.928;2023-04-25T14:01:11;7.70;;;5.55;;
35326;SDS011;21436;52.348;20.928;2023-04-25T14:03:39;6.20;;;5.25;;
35326;SDS011;21436;52.348;20.928;2023-04-25T14:06:07;8.00;;;5.63;;
35326;SDS011;21436;52.348;20.928;2023-04-25T14:08:35;7.10;;;5.85;;
35326;SDS011;21436;52.348;20.928;2023-04-25T14:11:03;7.50;;;5.43;;
35326;SDS011;21436;52.348;20.928;2023-04-25T14:13:30;8.45;;;5.88;;
35326;SDS011;21436;52.348;20.928;2023-04-25T14:15:57;7.55;;;5.63;;
35326;SDS011;21436;52.348;20.928;2023-04-25T14:18:25;7.50;;;6.00;;
35326;SDS011;21436;52.348;20.928;2023-04-25T14:20:52;7.00;;;6.00;;
35326;SDS011;21436;52.348;20.928;2023-04-25T14:23:20;8.02;;;6.55;;
35326;SDS011;21436;52.348;20.928;2023-04-25T14:25:47;14.10;;;6.88;;
35326;SDS011;21436;52.348;20.928;2023-04-25T14:28:15;8.50;;;6.78;;
35326;SDS011;21436;52.348;20.928;2023-04-25T14:30:42;7.85;;;6.70;;
35326;SDS011;21436;52.348;20.928;2023-04-25T14:33:09;8.75;;;6.38;;
35326;SDS011;21436;52.348;20.928;2023-04-25T14:35:37;8.95;;;6.43;;
35326;SDS011;21436;52.348;20.928;2023-04-25T14:38:05;7.78;;;6.50;;
35326;SDS011;21436;52.348;20.928;2023-04-25T14:40:32;13.40;;;8.60;;
35326;SDS011;21436;52.348;20.928;2023-04-25T14:42:59;10.52;;;7.55;;
35326;SDS011;21436;52.348;20.928;2023-04-25T14:45:27;11.55;;;8.68;;
35326;SDS011;21436;52.348;20.928;2023-04-25T14:47:55;12.57;;;7.43;;
35326;SDS011;21436;52.348;20.928;2023-04-25T14:50:22;8.88;;;7.30;;
35326;SDS011;21436;52.348;20.928;2023-04-25T14:52:50;12.40;;;8.35;;
35326;SDS011;21436;52.348;20.928;2023-04-25T14:55:19;10.13;;;7.65;;
35326;SDS011;21436;52.348;20.928;2023-04-25T14:57:47;10.35;;;7.93;;
35326;SDS011;21436;52.348;20.928;2023-04-25T15:00:14;11.55;;;8.10;;